Suggestion Search

Define a bounding box (note: it will not wrap North/South over poles). If the range is zero degrees, a bounding box will not be used to constrain the search.

Centered On °   °

Match text in the suggestion title, science rationale or special notes. The search is case-insensitive. % is a wildcard (_ for a single character).

Find
Search

You may select science themes to limit query, otherwise suggestions from all themes will be returned.

Multiple values may be selected (shift + click).

  Rows per page
3,969 records found, displaying 3,301 to 3,400.[First/Prev] 30, 31, 32, 33, 34, 35, 36, 37 [Next/Last]
ID Suggestion Title Latitude Longitude Repeat Created Observation ID
40351 Possible phyllosilicate-rich terrain -28.400 183.400 1 2009-12-21 ESP_016057_1515
40349 Possible sulfates in Ophir Chasma -4.270 289.040 1 2009-12-21 ESP_016053_1755
40347 Possible phyllosilicates in Nirgal Vallis -28.090 319.652 1 2009-12-21 ESP_038957_1515
40345 Phyllosilicates in Mawrth Vallis 25.350 340.302 1 2009-12-21 ESP_016051_2055
40343 Syrtis region 20.500 62.794 1 2009-12-21 ESP_016048_2005
40341 Gullied crater wall -37.181 124.142 1 2009-12-21 ESP_016046_1425
40339 Gullied crater wall -39.443 234.262 1 2009-12-21 ESP_016042_1400
40337 Possible olivine-rich terrain 33.031 306.170 1 2009-12-21 ESP_016039_2135
40335 Crater 31.101 29.186 1 2009-12-21 ESP_016036_2115
40333 Fretted terrain in the Protonilus and Nilosyrtis regions 38.309 55.591 1 2009-12-21 ESP_016035_2185
40331 Crater in Hellas region -50.908 66.910 1 2009-12-21 ESP_016035_1290
40329 Western edge of crater -14.100 116.880 1 2009-12-21 ESP_016033_1655
40327 Gullied crater wall -39.343 147.240 1 2009-12-21 ESP_016032_1405
40325 Craters and valleys in the Claritas Fossae region -39.423 256.405 1 2009-12-21 ESP_016028_1400
40323 Crater 33.558 329.619 1 2009-12-21 ESP_016025_2140
40320 Gullied crater wall -40.295 225.795 1 2009-12-21 ESP_016451_1395
40287 Gullies obscured by dunes in southern Terra Sirenum -53.107 211.780 1 2009-12-17 ESP_015977_1265
40283 Patterned outcrop in Hellas Planitia -33.108 71.531 1 2009-12-16 ESP_015982_1465
40281 Bedrock in a crater northwest of Hellas Planitia -28.144 53.725 1 2009-12-16 ESP_016009_1515
40279 Gullied central pit -41.192 171.212 1 2009-12-16 ESP_015952_1385
40209 Northeast Syrtis Major candidate landing site 17.830 77.111 1 2009-12-15 ESP_015942_1980
40195 Candidate light gully material in CTX image P07_003727_1355_XN_44S137W -43.854 222.486 1 2009-12-14 ESP_015937_1360
40193 Protonilus Mensae fretted terrain 42.145 49.930 1 2009-12-14 ESP_016022_2225
40191 Nilosyrtis Mensae fretted terrain 44.002 76.732 1 2009-12-14 ESP_016021_2245
40189 Gullied crater wall 39.515 105.340 1 2009-12-14 ESP_016020_2200
40187 Terrain east of Kinkora Crater -24.899 113.580 1 2009-12-14 ESP_016020_1550
40185 Gullied crater wall -47.449 170.713 1 2009-12-14 ESP_016018_1320
40183 Gullied crater wall -46.665 279.304 1 2009-12-14 ESP_016014_1330
40181 Massif with radial troughs in Viking 072A02 38.085 347.491 1 2009-12-14 ESP_016011_2185
40179 Depression with layered walls in Sisyphi Planum -66.367 4.873 1 2009-12-14 ESP_016011_1135
40177 Possible phyllosilicate in crater excavating dark material -4.001 132.840 1 2009-12-14 ESP_016006_1760
40175 Possible phyllosilicate deposit in Valles Marineris -4.892 268.520 1 2009-12-14 ESP_016001_1750
40173 Pyroxene-rich terrain in Valles Marineris -13.070 297.423 1 2009-12-14 ESP_016000_1670
40171 Channel in Mamers Valles crater with possible phyllosilicate 35.257 13.500 1 2009-12-14 ESP_015997_2155
40169 West Nili Fossae chlorite crater ejecta blanket 19.460 69.580 1 2009-12-14 ESP_015995_1995
40167 Plains northeast of Zea Dorsa -46.047 78.641 1 2009-12-14 ESP_015995_1335
40165 Crater in Utopia Planitia region 40.212 93.483 1 2009-12-14 ESP_015994_2205
40163 Crater wall in Tyrrhena Terra -8.060 100.623 1 2009-12-14 ESP_015994_1720
40161 Crater in Utopia Planitia region 50.089 147.369 1 2009-12-14 ESP_015992_2305
40159 North mid-latitude crater 44.459 203.041 1 2009-12-14 ESP_015990_2250
40157 Gullied crater wall -48.976 270.223 1 2009-12-14 ESP_015988_1305
40155 Shalbatana Vallis 6.914 317.600 1 2009-12-14 ESP_015986_1870
40153 Nereidum Montes -42.803 323.776 1 2009-12-14 ESP_015986_1370
40151 Sinuous ridge and neighboring landforms -46.126 351.609 1 2009-12-14 ESP_015985_1335
40149 Sulfate layered stratigraphy in Ophir region -3.950 285.750 1 2009-12-14 ESP_015974_1760
40147 Northern mid-latitude crater 33.187 309.491 1 2009-12-14 ESP_015973_2135
40145 Hydrated and unaltered mineralogy in north plains crater 46.200 334.066 1 2009-12-14 ESP_015972_2265
40143 Sinuous ridge and channel features at east end of Frento Vallis system -49.904 347.077 1 2009-12-14 ESP_015972_1300
40141 Crater 32.047 3.744 1 2009-12-14 ESP_015971_2125
40139 Possible olivine-rich terrain on etched intercrater plains deposit -2.531 62.210 1 2009-12-14 ESP_015969_1775
40137 Greater Hellas region crater rim or escarpment -46.150 95.751 1 2009-12-14 ESP_015968_1335
40135 Possible sulfate-rich terrain -11.401 173.000 1 2009-12-14 ESP_015965_1685
40133 Olivine-rich small crater in Terra Sirenum -37.110 230.740 1 2009-12-14 ESP_015963_1425
40131 New 80-meter diameter crater formed between August 1976 and May 1999 -10.625 254.128 1 2009-12-14 ESP_015962_1695
40129 Gully alcove with material mantling the slope -38.022 313.452 1 2009-12-14 ESP_015960_1415
40127 Layer exposure in crater north of Meridiani Planum 3.589 1.148 1 2009-12-14 ESP_015958_1835
40125 Possible phyllosilicates-rich terrain 29.590 25.670 1 2009-12-14 ESP_015957_2100
40123 Protonilus Mensae fretted terrain in northern plains transition area 40.698 51.237 1 2009-12-14 ESP_015956_2210
40121 Olivine-rich terrain -15.920 59.380 1 2009-12-14 ESP_015956_1640
40119 Olivine-rich terrain 3.911 83.510 1 2009-12-14 ESP_015955_1840
40117 Depressions within mantling unit on knobs in Promethei Terra -57.779 93.180 1 2009-12-14 ESP_015955_1220
40115 Gullied crater wall 36.318 107.803 1 2009-12-14 ESP_015954_2165
40113 Gullied crater wall -40.295 225.795 1 2009-12-14 ESP_015950_1395
40111 Faults in olivine-rich terrain 43.290 269.673 1 2009-12-14 ESP_015948_2235
40109 Crater in the Tempe Fossae region 40.765 297.492 1 2009-12-14 ESP_015947_2210
40107 Exposure of mid-latitude apron interior by younger gully -42.513 308.755 1 2009-12-14 ESP_015947_1370
40105 North Arabia Terra monitoring site 42.234 18.387 1 2009-12-14 ESP_015944_2225
40103 Craters in Noachis Terra -41.703 30.092 1 2009-12-14 ESP_015944_1380
40101 Sinuous ridges associated with Cusus Valles 15.828 49.377 1 2009-12-14 ESP_015943_1960
40099 Possible phyllosilicates-rich terrain -12.700 80.915 1 2009-12-14 ESP_015942_1670
40097 Crater -57.608 89.189 1 2009-12-14 ESP_015942_1220
40095 South mid-latitude crater with textured floor -49.087 250.243 1 2009-12-14 ESP_015936_1305
40093 Tithonium Chasma -4.373 271.428 1 2009-12-14 ESP_015935_1755
40091 Juventae region mound and possible sulfate-rich terrain -3.740 298.185 1 2009-12-14 ESP_015934_1760
40089 Nereidum Montes -49.268 304.380 1 2009-12-14 ESP_015934_1305
40087 Nereidum Montes -47.884 331.418 1 2009-12-14 ESP_015933_1320
38449 South high latitude dune field -68.428 162.734 1 2009-08-24 ESP_023495_1115
38447 Gully fans overlying mid-latitude fill margins -36.199 159.238 1 2009-08-24 ESP_024563_1435
38445 Gullies beneath well-defined layers in a crater inside Kaiser Crater -46.130 18.964 1 2009-08-24 ESP_015984_1335
38443 Possible phyllosilicates-rich terrain 2.111 121.710 1 2009-08-24 ESP_015980_1820
38441 Possible phyllosilicate in fan -6.551 150.690 1 2009-08-24 ESP_016546_1735
38439 Arcadia region domes 38.870 171.820 1 2009-08-24 ESP_015978_2190
38437 South polar residual cap summer mosaic campaign -88.507 280.971 1 2009-08-24
38435 Candidate new impact site formed between July 2008 and July 2009 -6.844 259.393 1 2009-08-24 ESP_016331_1730
38431 Gullied trough wall -62.558 344.510 1 2009-08-24 ESP_055795_1170
38429 Depression and small cone with summit depression amid flows 4.639 138.531 1 2009-08-24 ESP_016942_1845
38427 New impact site formed between January 2007 and May 2009 -0.629 248.911 1 2009-08-24 ESP_015949_1795
38425 Valles Marineris phyllosilicate deposit -7.731 276.639 1 2009-08-24 ESP_057591_1720
38423 South polar residual cap -87.571 339.559 1 2009-08-24 ESP_057895_0925
38421 Dunes in Hellas Planitia -47.679 57.852 1 2009-08-24 ESP_017288_1325
38419 OMEGA olivine detection -4.490 80.064 1 2009-08-24
38417 North polar dune seasonal defrost monitor site 76.632 89.493 1 2009-08-24 ESP_015915_2570
38415 Degraded crater rim 12.530 105.252 1 2009-08-24 ESP_067831_1925
38413 Stratigraphic relations among yardang-forming materials -0.829 188.874 1 2009-08-24 ESP_018773_1790
38411 Candidate fresh impact site formed between January 2007 and May 2009 -8.873 217.647 1 2009-08-24 ESP_018561_1710
38409 South polar residual cap -84.730 280.448 1 2009-08-24 ESP_057856_0950
38407 Gullied crater wall -44.696 277.032 1 2009-08-24 ESP_048334_1350
38405 Gully apron in crater southeast of Bosporos Planum -36.440 302.673 1 2009-08-24 ESP_022171_1430
38403 Coordinated observation of Opportunity near Endeavour Crater -2.142 354.630 1 2009-08-24 ESP_021892_1775
38401 Escarpment east of Isidis Planitia 10.491 100.415 1 2009-08-24 ESP_037382_1905

Each suggestion is given a unique ID. A stereo suggestion will be made into a pair at the discretion of the Science Theme Lead.

Suggestion title.

Latitudes are expressed in planetocentric degrees.

Longitude are measured in degrees and range east from 0 to 360.

1 for a single suggestion, STEREO for a stereo suggestion, otherwise the number of suggestions in a seasonal or other repeat set.

The date on which the suggestion was created.

If the suggestion has been retired, a link to the observation page.

The username of the suggester.